sensor_id;sensor_type;location;lat;lon;timestamp;P1;durP1;ratioP1;P2;durP2;ratioP2
13071;SDS011;6602;58.934;11.166;2023-04-29T00:03:06;2.47;;;0.77;;
13071;SDS011;6602;58.934;11.166;2023-04-29T00:08:11;1.67;;;1.10;;
13071;SDS011;6602;58.934;11.166;2023-04-29T00:13:12;1.80;;;1.00;;
13071;SDS011;6602;58.934;11.166;2023-04-29T00:18:16;1.10;;;1.00;;
13071;SDS011;6602;58.934;11.166;2023-04-29T00:23:20;1.53;;;1.03;;
13071;SDS011;6602;58.934;11.166;2023-04-29T00:28:24;1.03;;;0.90;;
13071;SDS011;6602;58.934;11.166;2023-04-29T00:33:24;1.87;;;1.07;;
13071;SDS011;6602;58.934;11.166;2023-04-29T00:38:28;1.63;;;1.13;;
13071;SDS011;6602;58.934;11.166;2023-04-29T00:43:34;1.53;;;1.13;;
13071;SDS011;6602;58.934;11.166;2023-04-29T00:48:35;0.77;;;0.70;;
13071;SDS011;6602;58.934;11.166;2023-04-29T00:53:36;1.27;;;1.17;;
13071;SDS011;6602;58.934;11.166;2023-04-29T00:58:38;1.10;;;1.00;;
13071;SDS011;6602;58.934;11.166;2023-04-29T01:03:39;2.63;;;1.00;;
13071;SDS011;6602;58.934;11.166;2023-04-29T01:14:10;2.43;;;1.10;;
13071;SDS011;6602;58.934;11.166;2023-04-29T01:24:31;1.90;;;1.20;;
13071;SDS011;6602;58.934;11.166;2023-04-29T01:40:48;2.47;;;1.17;;
13071;SDS011;6602;58.934;11.166;2023-04-29T01:46:01;1.80;;;0.90;;
13071;SDS011;6602;58.934;11.166;2023-04-29T01:51:03;1.67;;;1.20;;
13071;SDS011;6602;58.934;11.166;2023-04-29T01:56:06;2.37;;;1.53;;
13071;SDS011;6602;58.934;11.166;2023-04-29T02:01:08;1.80;;;1.00;;
13071;SDS011;6602;58.934;11.166;2023-04-29T02:06:11;2.47;;;1.30;;
13071;SDS011;6602;58.934;11.166;2023-04-29T02:11:24;6.23;;;1.30;;
13071;SDS011;6602;58.934;11.166;2023-04-29T02:16:24;1.67;;;1.10;;
13071;SDS011;6602;58.934;11.166;2023-04-29T02:21:25;1.10;;;1.00;;
13071;SDS011;6602;58.934;11.166;2023-04-29T02:26:26;1.90;;;1.10;;
13071;SDS011;6602;58.934;11.166;2023-04-29T02:31:27;1.43;;;1.00;;
13071;SDS011;6602;58.934;11.166;2023-04-29T02:36:28;2.77;;;1.13;;
13071;SDS011;6602;58.934;11.166;2023-04-29T02:41:30;1.40;;;1.30;;
13071;SDS011;6602;58.934;11.166;2023-04-29T02:46:31;2.70;;;1.03;;
13071;SDS011;6602;58.934;11.166;2023-04-29T02:51:34;1.60;;;1.13;;
13071;SDS011;6602;58.934;11.166;2023-04-29T02:56:35;2.20;;;1.30;;
13071;SDS011;6602;58.934;11.166;2023-04-29T03:01:36;3.70;;;1.20;;
13071;SDS011;6602;58.934;11.166;2023-04-29T03:06:37;7.33;;;1.83;;
13071;SDS011;6602;58.934;11.166;2023-04-29T03:11:38;3.00;;;1.37;;
13071;SDS011;6602;58.934;11.166;2023-04-29T03:16:39;3.80;;;1.30;;
13071;SDS011;6602;58.934;11.166;2023-04-29T03:21:43;1.50;;;1.37;;
13071;SDS011;6602;58.934;11.166;2023-04-29T03:26:46;1.67;;;1.00;;
13071;SDS011;6602;58.934;11.166;2023-04-29T03:31:47;2.23;;;1.07;;
13071;SDS011;6602;58.934;11.166;2023-04-29T03:36:50;4.17;;;1.50;;
13071;SDS011;6602;58.934;11.166;2023-04-29T03:41:51;3.87;;;1.43;;
13071;SDS011;6602;58.934;11.166;2023-04-29T03:46:52;2.03;;;1.40;;
13071;SDS011;6602;58.934;11.166;2023-04-29T03:51:53;5.20;;;1.83;;
13071;SDS011;6602;58.934;11.166;2023-04-29T03:56:57;4.00;;;1.67;;
13071;SDS011;6602;58.934;11.166;2023-04-29T04:02:00;4.13;;;1.67;;
13071;SDS011;6602;58.934;11.166;2023-04-29T04:07:04;2.97;;;1.60;;
13071;SDS011;6602;58.934;11.166;2023-04-29T04:12:05;5.67;;;2.60;;
13071;SDS011;6602;58.934;11.166;2023-04-29T04:17:06;3.37;;;2.10;;
13071;SDS011;6602;58.934;11.166;2023-04-29T04:22:07;7.27;;;2.20;;
13071;SDS011;6602;58.934;11.166;2023-04-29T04:27:08;5.03;;;2.40;;
13071;SDS011;6602;58.934;11.166;2023-04-29T04:32:12;5.57;;;2.10;;
13071;SDS011;6602;58.934;11.166;2023-04-29T04:37:13;5.13;;;2.03;;
13071;SDS011;6602;58.934;11.166;2023-04-29T04:42:14;6.87;;;1.97;;
13071;SDS011;6602;58.934;11.166;2023-04-29T04:47:18;3.00;;;1.50;;
13071;SDS011;6602;58.934;11.166;2023-04-29T04:52:19;3.53;;;1.20;;
13071;SDS011;6602;58.934;11.166;2023-04-29T04:57:20;3.87;;;1.40;;
13071;SDS011;6602;58.934;11.166;2023-04-29T05:02:21;3.97;;;1.20;;
13071;SDS011;6602;58.934;11.166;2023-04-29T05:07:24;2.03;;;0.80;;
13071;SDS011;6602;58.934;11.166;2023-04-29T05:12:26;2.93;;;1.00;;
13071;SDS011;6602;58.934;11.166;2023-04-29T05:17:33;4.00;;;0.80;;
13071;SDS011;6602;58.934;11.166;2023-04-29T05:22:37;4.23;;;1.20;;
13071;SDS011;6602;58.934;11.166;2023-04-29T05:27:49;3.40;;;0.80;;
13071;SDS011;6602;58.934;11.166;2023-04-29T05:32:53;2.60;;;0.93;;
13071;SDS011;6602;58.934;11.166;2023-04-29T05:37:55;1.50;;;0.77;;
13071;SDS011;6602;58.934;11.166;2023-04-29T05:42:59;1.57;;;1.07;;
13071;SDS011;6602;58.934;11.166;2023-04-29T05:48:00;4.33;;;1.03;;
13071;SDS011;6602;58.934;11.166;2023-04-29T05:53:02;2.30;;;1.10;;
13071;SDS011;6602;58.934;11.166;2023-04-29T05:58:11;3.20;;;1.00;;
13071;SDS011;6602;58.934;11.166;2023-04-29T06:03:14;3.20;;;0.90;;
13071;SDS011;6602;58.934;11.166;2023-04-29T06:08:37;1.97;;;0.90;;
13071;SDS011;6602;58.934;11.166;2023-04-29T06:13:44;1.40;;;0.67;;
13071;SDS011;6602;58.934;11.166;2023-04-29T06:18:45;3.30;;;0.70;;
13071;SDS011;6602;58.934;11.166;2023-04-29T06:24:02;1.60;;;0.60;;
13071;SDS011;6602;58.934;11.166;2023-04-29T06:29:03;0.83;;;0.70;;
13071;SDS011;6602;58.934;11.166;2023-04-29T06:34:12;5.73;;;1.20;;
13071;SDS011;6602;58.934;11.166;2023-04-29T06:39:13;4.70;;;1.40;;
13071;SDS011;6602;58.934;11.166;2023-04-29T06:44:20;4.53;;;1.27;;
13071;SDS011;6602;58.934;11.166;2023-04-29T06:49:24;7.07;;;1.30;;
13071;SDS011;6602;58.934;11.166;2023-04-29T06:54:26;1.83;;;0.90;;
13071;SDS011;6602;58.934;11.166;2023-04-29T06:59:27;4.60;;;1.23;;
13071;SDS011;6602;58.934;11.166;2023-04-29T07:04:28;2.50;;;1.40;;
13071;SDS011;6602;58.934;11.166;2023-04-29T07:09:31;4.27;;;1.00;;
13071;SDS011;6602;58.934;11.166;2023-04-29T07:14:33;6.43;;;1.10;;
13071;SDS011;6602;58.934;11.166;2023-04-29T07:19:37;2.17;;;0.80;;
13071;SDS011;6602;58.934;11.166;2023-04-29T07:25:19;3.67;;;1.00;;
13071;SDS011;6602;58.934;11.166;2023-04-29T07:30:23;1.17;;;0.87;;
13071;SDS011;6602;58.934;11.166;2023-04-29T07:35:31;4.67;;;1.30;;
13071;SDS011;6602;58.934;11.166;2023-04-29T07:41:03;5.63;;;1.40;;
13071;SDS011;6602;58.934;11.166;2023-04-29T07:46:45;3.20;;;1.60;;
13071;SDS011;6602;58.934;11.166;2023-04-29T07:51:52;10.50;;;1.87;;
13071;SDS011;6602;58.934;11.166;2023-04-29T07:57:04;6.17;;;1.80;;
13071;SDS011;6602;58.934;11.166;2023-04-29T08:02:25;8.63;;;1.83;;
13071;SDS011;6602;58.934;11.166;2023-04-29T08:07:28;7.20;;;1.60;;
13071;SDS011;6602;58.934;11.166;2023-04-29T08:12:33;1.93;;;1.50;;
13071;SDS011;6602;58.934;11.166;2023-04-29T08:17:36;4.87;;;1.33;;
13071;SDS011;6602;58.934;11.166;2023-04-29T08:22:46;9.67;;;1.70;;
13071;SDS011;6602;58.934;11.166;2023-04-29T08:27:49;4.10;;;1.60;;
13071;SDS011;6602;58.934;11.166;2023-04-29T08:32:50;10.27;;;2.10;;
13071;SDS011;6602;58.934;11.166;2023-04-29T08:37:52;7.47;;;2.17;;
13071;SDS011;6602;58.934;11.166;2023-04-29T08:43:02;3.33;;;1.53;;
13071;SDS011;6602;58.934;11.166;2023-04-29T08:48:07;6.53;;;1.53;;
13071;SDS011;6602;58.934;11.166;2023-04-29T08:53:10;6.10;;;1.10;;
13071;SDS011;6602;58.934;11.166;2023-04-29T08:58:13;5.47;;;0.80;;
13071;SDS011;6602;58.934;11.166;2023-04-29T09:03:33;4.43;;;1.10;;
13071;SDS011;6602;58.934;11.166;2023-04-29T09:09:15;3.73;;;1.03;;
13071;SDS011;6602;58.934;11.166;2023-04-29T09:14:44;1.67;;;0.73;;
13071;SDS011;6602;58.934;11.166;2023-04-29T09:19:48;2.30;;;0.80;;
13071;SDS011;6602;58.934;11.166;2023-04-29T09:24:53;3.50;;;0.77;;
13071;SDS011;6602;58.934;11.166;2023-04-29T09:30:13;2.27;;;1.17;;
13071;SDS011;6602;58.934;11.166;2023-04-29T09:35:23;2.40;;;0.80;;
13071;SDS011;6602;58.934;11.166;2023-04-29T09:40:31;2.77;;;0.97;;
13071;SDS011;6602;58.934;11.166;2023-04-29T09:45:35;1.37;;;0.70;;
13071;SDS011;6602;58.934;11.166;2023-04-29T09:50:38;4.87;;;0.70;;
13071;SDS011;6602;58.934;11.166;2023-04-29T10:00:53;0.87;;;0.53;;
13071;SDS011;6602;58.934;11.166;2023-04-29T10:05:54;2.03;;;0.70;;
13071;SDS011;6602;58.934;11.166;2023-04-29T10:11:03;1.57;;;0.53;;
13071;SDS011;6602;58.934;11.166;2023-04-29T10:21:26;1.27;;;0.60;;
13071;SDS011;6602;58.934;11.166;2023-04-29T10:26:31;0.30;;;0.30;;
13071;SDS011;6602;58.934;11.166;2023-04-29T10:31:36;3.23;;;0.60;;
13071;SDS011;6602;58.934;11.166;2023-04-29T10:36:42;0.93;;;0.50;;
13071;SDS011;6602;58.934;11.166;2023-04-29T10:41:44;3.40;;;0.60;;
13071;SDS011;6602;58.934;11.166;2023-04-29T10:52:50;3.03;;;0.83;;
13071;SDS011;6602;58.934;11.166;2023-04-29T10:57:52;0.53;;;0.43;;
13071;SDS011;6602;58.934;11.166;2023-04-29T11:02:57;2.97;;;0.50;;
13071;SDS011;6602;58.934;11.166;2023-04-29T11:08:12;1.97;;;0.50;;
13071;SDS011;6602;58.934;11.166;2023-04-29T11:13:26;1.83;;;0.43;;
13071;SDS011;6602;58.934;11.166;2023-04-29T11:18:34;1.40;;;0.37;;
13071;SDS011;6602;58.934;11.166;2023-04-29T11:23:42;2.60;;;0.60;;
13071;SDS011;6602;58.934;11.166;2023-04-29T11:28:48;4.47;;;0.60;;
13071;SDS011;6602;58.934;11.166;2023-04-29T11:33:58;1.60;;;0.50;;
13071;SDS011;6602;58.934;11.166;2023-04-29T11:39:00;3.97;;;0.73;;
13071;SDS011;6602;58.934;11.166;2023-04-29T11:44:02;4.87;;;0.97;;
13071;SDS011;6602;58.934;11.166;2023-04-29T11:49:09;4.67;;;0.90;;
13071;SDS011;6602;58.934;11.166;2023-04-29T11:54:12;1.03;;;0.50;;
13071;SDS011;6602;58.934;11.166;2023-04-29T11:59:16;3.93;;;0.97;;
13071;SDS011;6602;58.934;11.166;2023-04-29T12:04:18;1.00;;;0.40;;
13071;SDS011;6602;58.934;11.166;2023-04-29T12:09:28;2.43;;;0.40;;
13071;SDS011;6602;58.934;11.166;2023-04-29T12:14:47;1.97;;;0.60;;
13071;SDS011;6602;58.934;11.166;2023-04-29T12:19:51;0.80;;;0.43;;
13071;SDS011;6602;58.934;11.166;2023-04-29T12:24:52;2.20;;;0.60;;
13071;SDS011;6602;58.934;11.166;2023-04-29T12:29:59;1.10;;;0.50;;
13071;SDS011;6602;58.934;11.166;2023-04-29T12:35:13;1.50;;;0.57;;
13071;SDS011;6602;58.934;11.166;2023-04-29T12:40:19;1.43;;;0.40;;
13071;SDS011;6602;58.934;11.166;2023-04-29T12:45:26;0.40;;;0.30;;
13071;SDS011;6602;58.934;11.166;2023-04-29T12:50:33;1.60;;;0.30;;
13071;SDS011;6602;58.934;11.166;2023-04-29T12:55:37;1.40;;;0.30;;
13071;SDS011;6602;58.934;11.166;2023-04-29T13:00:38;0.57;;;0.30;;
13071;SDS011;6602;58.934;11.166;2023-04-29T13:05:39;2.17;;;0.43;;
13071;SDS011;6602;58.934;11.166;2023-04-29T13:10:41;1.40;;;0.50;;
13071;SDS011;6602;58.934;11.166;2023-04-29T13:15:43;2.07;;;1.10;;
13071;SDS011;6602;58.934;11.166;2023-04-29T13:20:50;0.53;;;0.30;;
13071;SDS011;6602;58.934;11.166;2023-04-29T13:26:04;1.47;;;0.53;;
13071;SDS011;6602;58.934;11.166;2023-04-29T13:31:14;2.67;;;0.70;;
13071;SDS011;6602;58.934;11.166;2023-04-29T13:36:18;4.90;;;0.80;;
13071;SDS011;6602;58.934;11.166;2023-04-29T13:41:19;2.87;;;0.30;;
13071;SDS011;6602;58.934;11.166;2023-04-29T13:46:22;1.20;;;0.40;;
13071;SDS011;6602;58.934;11.166;2023-04-29T13:51:26;0.30;;;0.30;;
13071;SDS011;6602;58.934;11.166;2023-04-29T13:56:46;1.03;;;0.40;;
13071;SDS011;6602;58.934;11.166;2023-04-29T14:01:48;1.60;;;0.47;;
13071;SDS011;6602;58.934;11.166;2023-04-29T14:06:51;2.30;;;0.50;;
13071;SDS011;6602;58.934;11.166;2023-04-29T14:11:54;3.50;;;0.50;;
13071;SDS011;6602;58.934;11.166;2023-04-29T14:17:13;2.83;;;0.43;;
13071;SDS011;6602;58.934;11.166;2023-04-29T14:22:23;2.10;;;0.83;;
13071;SDS011;6602;58.934;11.166;2023-04-29T14:27:39;1.60;;;0.43;;
13071;SDS011;6602;58.934;11.166;2023-04-29T14:32:40;0.20;;;0.20;;
13071;SDS011;6602;58.934;11.166;2023-04-29T14:37:45;1.90;;;0.37;;
13071;SDS011;6602;58.934;11.166;2023-04-29T14:42:58;1.80;;;0.37;;
13071;SDS011;6602;58.934;11.166;2023-04-29T14:48:03;0.20;;;0.20;;
13071;SDS011;6602;58.934;11.166;2023-04-29T14:53:05;1.47;;;0.40;;
13071;SDS011;6602;58.934;11.166;2023-04-29T14:58:10;0.20;;;0.20;;
13071;SDS011;6602;58.934;11.166;2023-04-29T15:03:14;2.50;;;0.40;;
13071;SDS011;6602;58.934;11.166;2023-04-29T15:08:15;0.47;;;0.47;;
13071;SDS011;6602;58.934;11.166;2023-04-29T15:13:30;0.47;;;0.30;;
13071;SDS011;6602;58.934;11.166;2023-04-29T15:18:52;0.30;;;0.20;;
13071;SDS011;6602;58.934;11.166;2023-04-29T15:23:59;0.70;;;0.40;;
13071;SDS011;6602;58.934;11.166;2023-04-29T15:29:07;0.20;;;0.20;;
13071;SDS011;6602;58.934;11.166;2023-04-29T15:34:20;1.13;;;0.30;;
13071;SDS011;6602;58.934;11.166;2023-04-29T15:39:22;1.10;;;0.50;;
13071;SDS011;6602;58.934;11.166;2023-04-29T15:44:26;0.40;;;0.40;;
13071;SDS011;6602;58.934;11.166;2023-04-29T15:49:26;0.50;;;0.40;;
13071;SDS011;6602;58.934;11.166;2023-04-29T15:54:27;1.30;;;0.20;;
13071;SDS011;6602;58.934;11.166;2023-04-29T15:59:30;0.43;;;0.20;;
13071;SDS011;6602;58.934;11.166;2023-04-29T16:04:45;0.30;;;0.20;;
13071;SDS011;6602;58.934;11.166;2023-04-29T16:10:05;0.50;;;0.40;;
13071;SDS011;6602;58.934;11.166;2023-04-29T16:15:06;2.13;;;0.50;;
13071;SDS011;6602;58.934;11.166;2023-04-29T16:20:10;0.30;;;0.30;;
13071;SDS011;6602;58.934;11.166;2023-04-29T16:25:14;0.23;;;0.20;;
13071;SDS011;6602;58.934;11.166;2023-04-29T16:30:19;0.63;;;0.60;;
13071;SDS011;6602;58.934;11.166;2023-04-29T16:35:46;0.33;;;0.30;;
13071;SDS011;6602;58.934;11.166;2023-04-29T16:40:49;1.73;;;0.53;;
13071;SDS011;6602;58.934;11.166;2023-04-29T16:46:00;1.43;;;0.40;;
13071;SDS011;6602;58.934;11.166;2023-04-29T16:51:01;0.80;;;0.30;;
13071;SDS011;6602;58.934;11.166;2023-04-29T16:56:17;0.30;;;0.30;;
13071;SDS011;6602;58.934;11.166;2023-04-29T17:01:19;1.33;;;0.30;;
13071;SDS011;6602;58.934;11.166;2023-04-29T17:06:20;0.50;;;0.47;;
13071;SDS011;6602;58.934;11.166;2023-04-29T17:11:24;0.90;;;0.40;;
13071;SDS011;6602;58.934;11.166;2023-04-29T17:16:25;3.60;;;0.50;;
13071;SDS011;6602;58.934;11.166;2023-04-29T17:21:30;0.47;;;0.37;;
13071;SDS011;6602;58.934;11.166;2023-04-29T17:26:34;1.57;;;0.37;;
13071;SDS011;6602;58.934;11.166;2023-04-29T17:31:35;0.70;;;0.30;;
13071;SDS011;6602;58.934;11.166;2023-04-29T17:36:59;0.70;;;0.40;;
13071;SDS011;6602;58.934;11.166;2023-04-29T17:42:05;2.93;;;0.40;;
13071;SDS011;6602;58.934;11.166;2023-04-29T17:47:06;1.87;;;0.40;;
13071;SDS011;6602;58.934;11.166;2023-04-29T17:52:16;0.40;;;0.33;;
13071;SDS011;6602;58.934;11.166;2023-04-29T17:57:38;1.30;;;0.70;;
13071;SDS011;6602;58.934;11.166;2023-04-29T18:03:01;0.77;;;0.50;;
13071;SDS011;6602;58.934;11.166;2023-04-29T18:08:11;1.70;;;0.50;;
13071;SDS011;6602;58.934;11.166;2023-04-29T18:13:29;2.63;;;0.60;;
13071;SDS011;6602;58.934;11.166;2023-04-29T18:18:33;1.90;;;0.50;;
13071;SDS011;6602;58.934;11.166;2023-04-29T18:23:41;0.93;;;0.50;;
13071;SDS011;6602;58.934;11.166;2023-04-29T18:28:45;2.40;;;0.70;;
13071;SDS011;6602;58.934;11.166;2023-04-29T18:33:49;1.80;;;0.50;;
13071;SDS011;6602;58.934;11.166;2023-04-29T18:38:51;1.73;;;0.60;;
13071;SDS011;6602;58.934;11.166;2023-04-29T18:43:55;2.17;;;0.50;;
13071;SDS011;6602;58.934;11.166;2023-04-29T18:49:09;1.13;;;0.60;;
13071;SDS011;6602;58.934;11.166;2023-04-29T18:54:20;1.20;;;0.37;;
13071;SDS011;6602;58.934;11.166;2023-04-29T18:59:22;1.17;;;0.70;;
13071;SDS011;6602;58.934;11.166;2023-04-29T19:04:24;0.83;;;0.50;;
13071;SDS011;6602;58.934;11.166;2023-04-29T19:09:25;0.87;;;0.43;;
13071;SDS011;6602;58.934;11.166;2023-04-29T19:14:33;0.73;;;0.50;;
13071;SDS011;6602;58.934;11.166;2023-04-29T19:19:39;1.63;;;0.70;;
13071;SDS011;6602;58.934;11.166;2023-04-29T19:24:42;2.17;;;1.07;;
13071;SDS011;6602;58.934;11.166;2023-04-29T19:29:43;1.33;;;0.87;;
13071;SDS011;6602;58.934;11.166;2023-04-29T19:34:54;3.90;;;0.83;;
13071;SDS011;6602;58.934;11.166;2023-04-29T19:39:57;1.10;;;0.60;;
13071;SDS011;6602;58.934;11.166;2023-04-29T19:45:14;2.23;;;0.83;;
13071;SDS011;6602;58.934;11.166;2023-04-29T19:50:21;2.03;;;0.77;;
13071;SDS011;6602;58.934;11.166;2023-04-29T19:55:23;2.30;;;0.80;;
13071;SDS011;6602;58.934;11.166;2023-04-29T20:00:36;1.13;;;0.60;;
13071;SDS011;6602;58.934;11.166;2023-04-29T20:05:38;2.73;;;1.00;;
13071;SDS011;6602;58.934;11.166;2023-04-29T20:10:43;0.63;;;0.53;;
13071;SDS011;6602;58.934;11.166;2023-04-29T20:15:47;0.93;;;0.80;;
13071;SDS011;6602;58.934;11.166;2023-04-29T20:20:49;2.37;;;1.47;;
13071;SDS011;6602;58.934;11.166;2023-04-29T20:25:50;3.83;;;0.87;;
13071;SDS011;6602;58.934;11.166;2023-04-29T20:30:51;1.10;;;0.50;;
13071;SDS011;6602;58.934;11.166;2023-04-29T20:35:53;1.90;;;0.77;;
13071;SDS011;6602;58.934;11.166;2023-04-29T20:40:57;2.23;;;0.90;;
13071;SDS011;6602;58.934;11.166;2023-04-29T20:45:59;1.17;;;0.90;;
13071;SDS011;6602;58.934;11.166;2023-04-29T20:51:05;2.43;;;0.70;;
13071;SDS011;6602;58.934;11.166;2023-04-29T20:56:06;1.63;;;0.73;;
13071;SDS011;6602;58.934;11.166;2023-04-29T21:01:15;2.17;;;0.63;;
13071;SDS011;6602;58.934;11.166;2023-04-29T21:06:18;1.90;;;0.70;;
13071;SDS011;6602;58.934;11.166;2023-04-29T21:11:19;3.70;;;0.90;;
13071;SDS011;6602;58.934;11.166;2023-04-29T21:16:24;1.13;;;0.70;;
13071;SDS011;6602;58.934;11.166;2023-04-29T21:21:25;2.27;;;0.90;;
13071;SDS011;6602;58.934;11.166;2023-04-29T21:26:37;1.17;;;0.63;;
13071;SDS011;6602;58.934;11.166;2023-04-29T21:31:45;1.30;;;0.70;;
13071;SDS011;6602;58.934;11.166;2023-04-29T21:36:50;1.43;;;0.70;;
13071;SDS011;6602;58.934;11.166;2023-04-29T21:42:01;2.13;;;0.87;;
13071;SDS011;6602;58.934;11.166;2023-04-29T21:47:04;1.30;;;0.60;;
13071;SDS011;6602;58.934;11.166;2023-04-29T21:52:10;1.57;;;0.87;;
13071;SDS011;6602;58.934;11.166;2023-04-29T21:57:16;1.30;;;0.63;;
13071;SDS011;6602;58.934;11.166;2023-04-29T22:02:17;3.93;;;1.20;;
13071;SDS011;6602;58.934;11.166;2023-04-29T22:07:37;0.87;;;0.70;;
13071;SDS011;6602;58.934;11.166;2023-04-29T22:12:38;0.97;;;0.63;;
13071;SDS011;6602;58.934;11.166;2023-04-29T22:17:39;2.37;;;0.73;;
13071;SDS011;6602;58.934;11.166;2023-04-29T22:22:41;2.10;;;0.60;;
13071;SDS011;6602;58.934;11.166;2023-04-29T22:27:48;0.93;;;0.73;;
13071;SDS011;6602;58.934;11.166;2023-04-29T22:32:50;1.63;;;0.90;;
13071;SDS011;6602;58.934;11.166;2023-04-29T22:37:52;2.10;;;1.00;;
13071;SDS011;6602;58.934;11.166;2023-04-29T22:42:53;1.93;;;0.90;;
13071;SDS011;6602;58.934;11.166;2023-04-29T22:47:57;0.70;;;0.70;;
13071;SDS011;6602;58.934;11.166;2023-04-29T22:53:07;1.07;;;0.53;;
13071;SDS011;6602;58.934;11.166;2023-04-29T22:58:10;0.83;;;0.70;;
13071;SDS011;6602;58.934;11.166;2023-04-29T23:03:15;1.20;;;0.53;;
13071;SDS011;6602;58.934;11.166;2023-04-29T23:08:34;0.87;;;0.70;;
13071;SDS011;6602;58.934;11.166;2023-04-29T23:13:36;3.07;;;0.60;;
13071;SDS011;6602;58.934;11.166;2023-04-29T23:18:46;0.70;;;0.60;;
13071;SDS011;6602;58.934;11.166;2023-04-29T23:23:47;1.33;;;0.73;;
13071;SDS011;6602;58.934;11.166;2023-04-29T23:28:51;1.33;;;0.87;;
13071;SDS011;6602;58.934;11.166;2023-04-29T23:33:57;0.63;;;0.63;;
13071;SDS011;6602;58.934;11.166;2023-04-29T23:38:58;2.30;;;1.03;;
13071;SDS011;6602;58.934;11.166;2023-04-29T23:44:00;0.50;;;0.50;;
13071;SDS011;6602;58.934;11.166;2023-04-29T23:49:01;1.03;;;0.80;;
13071;SDS011;6602;58.934;11.166;2023-04-29T23:54:15;1.90;;;0.63;;
13071;SDS011;6602;58.934;11.166;2023-04-29T23:59:16;0.93;;;0.60;;
